This is the latest recevied weather packets stored in our database for station/object OK2ZI. If no packets are shown the sender has not sent any weather packets the latest 10 day(s).
| Time | Temp. | Humidity | Pressure | Rain* | Wind** | Luminosity | Snow |
|---|---|---|---|---|---|---|---|
| 1778309526 | 12.78° C | 66% | 1017 hPa | 0 mm | - | - | - |
| 1778308812 | 12.78° C | 68% | 1017 hPa | 0 mm | - | - | - |
| 1778308685 | 12.22° C | 67% | 1017 hPa | 0 mm | - | - | - |
| 1778308327 | 12.22° C | 69% | 1017 hPa | 0 mm | - | - | - |
| 1778308214 | 12.22° C | 67% | 1017 hPa | 0 mm | - | - | - |
| 1778307846 | 11.67° C | 70% | 1016 hPa | 0 mm | - | - | - |
| 1778305326 | 9.44° C | 80% | 1016 hPa | 0 mm | - | - | - |
| 1778304966 | 9.44° C | 81% | 1016 hPa | 0 mm | - | - | - |
| 1778302446 | 7.78° C | 90% | 1016 hPa | 0 mm | - | - | - |
| 1778300166 | 6.67° C | 95% | 1016 hPa | 0 mm | - | - | - |
| 1778299566 | 6.67° C | 96% | 1016 hPa | 0 mm | - | - | - |
| 1778299326 | 6.11° C | 96% | 1016 hPa | 0 mm | - | - | - |
| 1778299023 | 5.56° C | 97% | 1016 hPa | 0 mm | - | - | - |
| 1778298486 | 5.56° C | 96% | 1016 hPa | 0 mm | - | - | - |
| 1778297767 | 6.11° C | 96% | 1016 hPa | 0 mm | - | - | - |
| 1778296926 | 6.11° C | 97% | 1016 hPa | 0 mm | - | - | - |
| 1778296210 | 5.56° C | 97% | 1016 hPa | 0 mm | - | - | - |
| 1778294766 | 5.56° C | 97% | 1016 hPa | 0 mm | - | - | - |
| 1778294166 | 5° C | 97% | 1016 hPa | 0 mm | - | - | - |
| 1778294046 | 5.56° C | 97% | 1016 hPa | 0 mm | - | - | - |
| 1778293447 | 5° C | 97% | 1016 hPa | 0 mm | - | - | - |
| 1778293326 | 5° C | 96% | 1016 hPa | 0 mm | - | - | - |
| 1778293087 | 5.56° C | 96% | 1016 hPa | 0 mm | - | - | - |
| 1778292846 | 5.56° C | 96% | 1016 hPa | 0 mm | - | - | - |
| 1778292726 | 5.56° C | 96% | 1016 hPa | 0 mm | - | - | - |
* Rain latest hour (hover to see other rain measurements)
** Current wind speed in m/s (hover to see current wind gust speed)